메인 페이지
METAR-TAF:

METAR-TAF

공항 :

멜버른, 플로리다, 미국

위도: 28-06-10N, 경도: 080-38-45W, 고도: 10m

현재 날씨관측

예보는 24분 전, 15:53시(UTC)에 발표되었습니다.
남남서6kt
온도 31°C
습도 59%
기압 1017 hPa
시정: 16.1km
고도 3600ft 상공 구름 보통

METAR: KMLB 301553Z 20006KT 10SM SCT036 31/22 A3003 RMK AO2 SLP168 T03060222

시각: 12:17 (16:17 UTC)

예보

예보는 1 시간 18분 전, 14:59시(UTC)에 발표되었습니다.
예보 대상 시간: 30일 15시부터 31일 12시까지 (UTC)
7kt
시정: 10km
고도 3000ft 상공 구름 보통
고도 25000ft 상공 구름 많음
30일 1600시부터 (UTC)
남서4kt
시정: 10km
고도 3500ft 상공 구름 보통
고도 8000ft 상공 구름 보통
30일 1800시부터 (UTC)
8kt
시정: 10km
고도 4000ft 상공 구름 보통, 적란운.
고도 7000ft 상공 구름 보통
시계 내 뇌우
일시적
30일 19시부터 30일 22시까지 (UTC)
시정: 4.8km
고도 3000ft 상공 구름 많음, 적란운.
고도 6000ft 상공 구름 많음
뇌우, 비
31일 0000시부터 (UTC)
여러 방향의 바람 5kt
시정: 10km
고도 4000ft 상공 구름 보통
고도 12000ft 상공 구름 많음
시계 내 소나기
31일 0100시부터 (UTC)
여러 방향의 바람 3kt
시정: 10km
고도 4000ft 상공 구름 보통
고도 25000ft 상공 구름 많음

TAF: KMLB 301459Z 3015/3112 18007KT P6SM SCT030 BKN250 FM301600 22004KT P6SM SCT035 SCT080 FM301800 10008KT P6SM VCTS SCT040CB SCT070 TEMPO 3019/3022 3SM TSRA BKN030CB BKN060 FM310000 VRB05KT P6SM VCSH SCT040 BKN120 FM310100 VRB03KT P6SM SCT040 BKN250

4,000개 이상의 공항 관측 자료 및 예보 (METAR 및 TAF 보고).

지도상에서 검색 가능한 기상관측소가 노란 점과 빨간 점으로 표시되어 있습니다.

기상관측소 명을 보려면 표시 위로 마우스를 이동하세요.

날씨 관측과 예보를 보려면 클릭하세요.

지도 변경 : 확대하려면 엑스 표시가 있는 녹색 버튼, 축소하려면 빼기 표시가 있는 녹색 버튼, 다음 페이지의 지도를 보려면 녹색 화살표를 클릭하세요.


METAR-TAF: